El Turbio, Argentina
Current Conditions -  °F | °C
As of 5:00 AM on Friday 19 Dec 2014 (Local Time) from SCCI Reporting Station
Broken Clouds Broken Clouds  
Wind Chill: 26°   Ceiling: 20000
Heat Index: 37°   Visibility: 6mi
Dew Point: 32°   Wind: 23mph
Humidity: 81%   Direction: 260°W
Pressure: 29"   Gusts: NA
Location:  51.61°S, 72.19°W
Report Text: SCCI 190800Z 26020KT 9999 SCT030 SCT100 BKN200 03/M00 Q0982 NOSIG
Loading
Personal Weather Stations






























Interactive Weather Map New forecast layout! Learn more

10-Day Weather Forecast

Advertisements
Track Severe Weather on mobile